createdAt,value
2022-11-30T00:01:21.850Z,164.15
2022-11-30T00:04:00.898Z,147.20
2022-11-30T00:06:32.397Z,252.68
2022-11-30T00:09:02.279Z,264.65
2022-11-30T00:11:34.748Z,170.02
2022-11-30T00:14:09.178Z,147.95
2022-11-30T00:16:41.462Z,265.90
2022-11-30T00:19:09.839Z,167.20
2022-11-30T00:21:38.000Z,151.93
2022-11-30T00:24:06.352Z,157.27
2022-11-30T00:26:35.607Z,159.13
2022-11-30T00:31:45.028Z,203.07
2022-11-30T00:34:14.451Z,124.95
2022-11-30T00:36:41.961Z,158.75
2022-11-30T00:39:10.006Z,143.95
2022-11-30T00:41:37.818Z,116.40
2022-11-30T00:44:05.048Z,124.65
2022-11-30T00:46:32.449Z,110.88
2022-11-30T00:51:42.376Z,111.32
2022-11-30T00:54:28.490Z,101.18
2022-11-30T00:56:59.147Z,125.82
2022-11-30T00:59:29.861Z,139.10
2022-11-30T01:04:27.919Z,108.78
2022-11-30T01:06:59.429Z,109.30
2022-11-30T01:09:27.211Z,93.90
2022-11-30T01:12:11.108Z,97.78
2022-11-30T01:14:46.385Z,90.38
2022-11-30T01:17:14.923Z,103.53
2022-11-30T01:19:43.067Z,89.38
2022-11-30T01:22:32.784Z,101.63
2022-11-30T01:25:01.125Z,92.15
2022-11-30T01:27:31.637Z,81.35
2022-11-30T01:30:05.742Z,100.40
2022-11-30T01:32:35.443Z,91.47
2022-11-30T01:35:02.409Z,87.93
2022-11-30T01:37:38.164Z,89.88
2022-11-30T01:40:07.235Z,79.72
2022-11-30T01:42:46.664Z,75.10
2022-11-30T01:45:19.050Z,73.25
2022-11-30T01:47:56.412Z,78.68
2022-11-30T01:50:37.742Z,79.95
2022-11-30T01:53:11.233Z,77.80
2022-11-30T01:55:44.114Z,90.72
2022-11-30T01:58:19.165Z,98.70
2022-11-30T02:00:50.965Z,77.75
2022-11-30T02:03:53.836Z,78.85
2022-11-30T02:06:33.759Z,64.00
2022-11-30T02:09:05.758Z,66.30
2022-11-30T02:11:38.222Z,60.35
2022-11-30T02:14:21.452Z,64.10
2022-11-30T02:17:14.373Z,71.65
2022-11-30T02:20:02.804Z,76.38
2022-11-30T02:22:58.937Z,74.50
2022-11-30T02:26:12.999Z,93.28
2022-11-30T02:29:27.710Z,101.72
2022-11-30T02:32:08.361Z,83.45
2022-11-30T02:34:59.847Z,89.43
2022-11-30T02:37:30.488Z,84.97
2022-11-30T02:40:05.154Z,91.10
2022-11-30T02:42:37.450Z,81.25
2022-11-30T02:45:11.323Z,89.72
2022-11-30T02:47:51.086Z,73.10
2022-11-30T02:50:27.652Z,69.18
2022-11-30T02:52:56.707Z,75.40
2022-11-30T02:55:26.757Z,71.20
2022-11-30T02:57:56.652Z,78.82
2022-11-30T03:00:48.562Z,78.60
2022-11-30T03:03:16.709Z,82.80
2022-11-30T03:05:44.507Z,67.20
2022-11-30T03:08:24.841Z,68.05
2022-11-30T03:10:55.267Z,76.47
2022-11-30T03:13:24.294Z,80.97
2022-11-30T03:15:51.696Z,74.30
2022-11-30T03:18:34.014Z,75.55
2022-11-30T03:21:09.614Z,77.40
2022-11-30T03:23:39.913Z,77.70
2022-11-30T03:26:08.376Z,73.20
2022-11-30T03:28:41.932Z,68.18
2022-11-30T03:31:15.807Z,63.15
2022-11-30T03:33:49.612Z,65.43
2022-11-30T03:36:28.961Z,72.43
2022-11-30T03:38:59.509Z,71.47
2022-11-30T03:41:27.965Z,70.82
2022-11-30T03:43:59.283Z,67.63
2022-11-30T03:46:34.525Z,59.15
2022-11-30T03:49:12.715Z,62.75
2022-11-30T03:51:41.011Z,54.58
2022-11-30T03:54:12.045Z,56.75
2022-11-30T03:56:39.199Z,52.55
2022-11-30T03:59:06.079Z,53.08
2022-11-30T04:01:38.717Z,48.67
2022-11-30T04:04:08.301Z,50.63
2022-11-30T04:06:35.214Z,48.85
2022-11-30T04:09:05.686Z,53.72
2022-11-30T04:11:35.624Z,50.53
2022-11-30T04:14:06.765Z,53.00
2022-11-30T04:16:38.828Z,52.60
2022-11-30T04:19:07.138Z,53.92
2022-11-30T04:21:40.392Z,57.05
2022-11-30T04:24:32.839Z,46.45
2022-11-30T04:29:48.822Z,47.47
2022-11-30T04:32:18.630Z,49.35
2022-11-30T04:34:53.787Z,43.22
2022-11-30T04:37:34.508Z,44.53
2022-11-30T04:40:10.055Z,41.50
2022-11-30T04:42:37.946Z,42.92
2022-11-30T04:47:52.833Z,43.90
2022-11-30T04:52:54.818Z,36.35
2022-11-30T04:55:25.816Z,33.15
2022-11-30T04:57:54.751Z,32.35
2022-11-30T05:00:22.332Z,29.15
2022-11-30T05:02:52.944Z,31.75
2022-11-30T05:05:20.482Z,30.60
2022-11-30T05:07:59.777Z,33.45
2022-11-30T05:10:28.859Z,37.67
2022-11-30T05:12:57.071Z,34.15
2022-11-30T05:15:23.962Z,30.48
2022-11-30T05:17:50.873Z,29.50
2022-11-30T05:20:17.858Z,31.38
2022-11-30T05:22:44.528Z,30.73
2022-11-30T05:25:11.353Z,29.67
2022-11-30T05:27:38.279Z,29.27
2022-11-30T05:30:06.332Z,30.23
2022-11-30T05:32:33.178Z,35.85
2022-11-30T05:34:59.918Z,32.67
2022-11-30T05:37:26.881Z,31.58
2022-11-30T05:39:53.779Z,35.83
2022-11-30T05:42:20.682Z,37.60
2022-11-30T05:44:48.562Z,35.15
2022-11-30T05:47:16.027Z,30.90
2022-11-30T05:50:04.813Z,34.47
2022-11-30T05:55:14.480Z,31.75
2022-11-30T05:57:46.124Z,28.13
2022-11-30T06:00:19.465Z,27.73
2022-11-30T06:02:54.081Z,31.90
2022-11-30T06:05:55.235Z,30.13
2022-11-30T06:08:29.291Z,32.42
2022-11-30T06:11:24.115Z,27.75
2022-11-30T06:13:51.496Z,31.42
2022-11-30T06:16:24.183Z,29.10
2022-11-30T06:18:53.831Z,31.15
2022-11-30T06:21:29.926Z,31.50
2022-11-30T06:23:57.741Z,33.70
2022-11-30T06:26:39.820Z,32.13
2022-11-30T06:29:09.283Z,30.88
2022-11-30T06:31:39.267Z,32.88
2022-11-30T06:34:10.498Z,31.45
2022-11-30T06:36:45.221Z,32.33
2022-11-30T06:39:26.909Z,46.25
2022-11-30T06:42:10.157Z,31.48
2022-11-30T06:44:41.471Z,30.80
2022-11-30T06:47:09.383Z,32.03
2022-11-30T06:49:44.904Z,31.35
2022-11-30T06:52:14.594Z,31.10
2022-11-30T06:54:50.238Z,28.88
2022-11-30T06:57:21.319Z,29.88
2022-11-30T06:59:52.844Z,30.65
2022-11-30T07:02:22.405Z,33.15
2022-11-30T07:07:32.836Z,37.40
2022-11-30T07:10:07.487Z,32.95
2022-11-30T07:12:37.828Z,33.58
2022-11-30T07:18:04.783Z,34.35
2022-11-30T07:20:31.666Z,38.78
2022-11-30T07:23:18.380Z,34.42
2022-11-30T07:26:04.080Z,33.78
2022-11-30T07:28:30.838Z,38.20
2022-11-30T07:30:57.520Z,38.05
2022-11-30T07:33:24.256Z,37.92
2022-11-30T07:35:53.584Z,42.28
2022-11-30T07:38:20.522Z,38.90
2022-11-30T07:40:47.265Z,37.58
2022-11-30T07:43:15.935Z,38.15
2022-11-30T07:45:42.890Z,37.05
2022-11-30T07:48:09.860Z,36.63
2022-11-30T07:50:36.604Z,36.35
2022-11-30T07:53:03.447Z,38.15
2022-11-30T07:55:30.979Z,38.17
2022-11-30T07:57:57.689Z,39.67
2022-11-30T08:00:24.530Z,39.35
2022-11-30T08:02:51.804Z,37.53
2022-11-30T08:05:18.567Z,41.28
2022-11-30T08:07:45.817Z,40.38
2022-11-30T08:10:12.691Z,35.05
2022-11-30T08:12:39.502Z,40.45
2022-11-30T08:15:27.491Z,35.92
2022-11-30T08:17:55.210Z,41.63
2022-11-30T08:20:22.508Z,37.38
2022-11-30T08:22:49.738Z,33.08
2022-11-30T08:25:16.628Z,37.30
2022-11-30T08:27:43.430Z,41.28
2022-11-30T08:30:10.427Z,35.15
2022-11-30T08:32:37.322Z,42.85
2022-11-30T08:35:04.436Z,36.95
2022-11-30T08:37:31.367Z,37.55
2022-11-30T08:39:59.721Z,40.90
2022-11-30T08:42:32.095Z,41.08
2022-11-30T08:45:01.815Z,38.33
2022-11-30T08:47:56.294Z,38.30
2022-11-30T08:50:36.947Z,39.60
2022-11-30T08:53:11.773Z,35.70
2022-11-30T08:55:47.432Z,38.13
2022-11-30T08:58:16.667Z,39.60
2022-11-30T09:03:33.139Z,36.83
2022-11-30T09:06:07.580Z,40.80
2022-11-30T09:08:44.683Z,38.80
2022-11-30T09:11:18.571Z,40.92
2022-11-30T09:14:05.865Z,39.65
2022-11-30T09:16:38.760Z,40.35
2022-11-30T09:19:05.628Z,38.15
2022-11-30T09:21:34.977Z,36.90
2022-11-30T09:24:02.795Z,39.40
2022-11-30T09:26:34.330Z,38.03
2022-11-30T09:29:03.802Z,41.08
2022-11-30T09:31:33.189Z,37.97
2022-11-30T09:34:00.942Z,36.22
2022-11-30T09:36:31.125Z,39.35
2022-11-30T09:39:01.000Z,37.80
2022-11-30T09:41:54.546Z,38.15
2022-11-30T09:45:08.217Z,37.65
2022-11-30T09:47:59.546Z,39.08
2022-11-30T09:50:37.672Z,37.70
2022-11-30T09:53:29.988Z,36.92
2022-11-30T09:56:26.263Z,38.42
2022-11-30T09:59:22.731Z,31.73
2022-11-30T10:01:59.632Z,36.55
2022-11-30T10:04:33.080Z,39.00
2022-11-30T10:07:47.170Z,37.00
2022-11-30T10:10:36.952Z,34.63
2022-11-30T10:13:52.108Z,38.35
2022-11-30T10:17:03.988Z,35.63
2022-11-30T10:23:09.025Z,31.23
2022-11-30T10:26:22.176Z,33.90
2022-11-30T10:28:56.194Z,33.78
2022-11-30T10:31:36.880Z,35.78
2022-11-30T10:34:23.301Z,33.20
2022-11-30T10:37:32.308Z,36.55
2022-11-30T10:40:00.624Z,35.08
2022-11-30T10:42:59.807Z,26.70
2022-11-30T10:45:29.206Z,30.45
2022-11-30T10:48:24.088Z,29.55
2022-11-30T10:50:57.141Z,29.83
2022-11-30T10:56:18.554Z,30.13
2022-11-30T10:58:54.847Z,30.52
2022-11-30T11:01:39.838Z,32.97
2022-11-30T11:04:28.018Z,30.95
2022-11-30T11:07:19.991Z,29.27
2022-11-30T11:09:58.466Z,26.50
2022-11-30T11:12:28.951Z,28.95
2022-11-30T11:15:18.827Z,32.40
2022-11-30T11:17:47.861Z,27.23
2022-11-30T11:20:47.546Z,28.20
2022-11-30T11:23:53.922Z,30.90
2022-11-30T11:26:39.365Z,31.63
2022-11-30T11:29:32.222Z,30.23
2022-11-30T11:32:26.387Z,26.60
2022-11-30T11:34:55.912Z,29.67
2022-11-30T11:37:32.065Z,31.38
2022-11-30T11:40:24.105Z,26.25
2022-11-30T11:43:01.805Z,30.67
2022-11-30T11:45:35.513Z,27.55
2022-11-30T11:48:09.321Z,28.65
2022-11-30T11:51:06.263Z,26.45
2022-11-30T11:53:47.438Z,22.70
2022-11-30T11:56:58.309Z,25.63
2022-11-30T12:00:00.285Z,23.73
2022-11-30T12:02:57.655Z,22.75
2022-11-30T12:08:42.402Z,23.92
2022-11-30T12:11:48.218Z,22.83
2022-11-30T12:14:18.619Z,22.15
2022-11-30T12:17:04.700Z,23.80
2022-11-30T12:20:08.035Z,23.52
2022-11-30T12:23:15.726Z,26.45
2022-11-30T12:27:01.209Z,24.45
2022-11-30T12:30:10.277Z,33.00
2022-11-30T12:33:03.426Z,28.85
2022-11-30T12:35:50.258Z,30.92
2022-11-30T12:38:44.293Z,28.48
2022-11-30T12:41:54.913Z,30.25
2022-11-30T12:45:08.756Z,27.45
2022-11-30T12:48:03.811Z,32.17
2022-11-30T12:50:45.223Z,29.80
2022-11-30T12:53:38.196Z,30.02
2022-11-30T12:56:53.497Z,27.15
2022-11-30T12:59:47.664Z,30.25
2022-11-30T13:03:02.926Z,29.15
2022-11-30T13:06:06.936Z,28.38
2022-11-30T13:08:48.363Z,27.08
2022-11-30T13:11:30.742Z,29.27
2022-11-30T13:14:00.003Z,28.50
2022-11-30T13:16:38.875Z,26.85
2022-11-30T13:19:28.902Z,25.55
2022-11-30T13:22:03.797Z,26.65
2022-11-30T13:27:50.242Z,30.55
2022-11-30T13:30:26.227Z,27.92
2022-11-30T13:32:59.300Z,28.45
2022-11-30T13:35:32.726Z,31.33
2022-11-30T13:41:07.215Z,27.65
2022-11-30T13:43:45.963Z,27.25
2022-11-30T13:46:25.860Z,26.40
2022-11-30T13:49:25.699Z,27.35
2022-11-30T13:54:58.281Z,28.13
2022-11-30T13:57:33.229Z,32.22
2022-11-30T14:00:22.416Z,33.75
2022-11-30T14:02:55.990Z,34.75
2022-11-30T14:05:47.473Z,32.15
2022-11-30T14:08:23.416Z,30.88
2022-11-30T14:11:12.705Z,34.33
2022-11-30T14:13:43.883Z,34.08
2022-11-30T14:16:46.307Z,30.48
2022-11-30T14:19:17.282Z,32.22
2022-11-30T14:21:54.428Z,31.15
2022-11-30T14:24:25.476Z,36.78
2022-11-30T14:26:58.937Z,35.05
2022-11-30T14:29:34.803Z,31.48
2022-11-30T14:32:22.119Z,33.58
2022-11-30T14:35:28.825Z,32.72
2022-11-30T14:38:02.680Z,30.58
2022-11-30T14:40:37.012Z,34.70
2022-11-30T14:43:07.316Z,33.17
2022-11-30T14:46:11.510Z,31.02
2022-11-30T14:48:46.600Z,30.25
2022-11-30T14:51:15.149Z,29.35
2022-11-30T14:54:13.449Z,32.08
2022-11-30T14:56:53.772Z,28.48
2022-11-30T14:59:50.486Z,33.17
2022-11-30T15:02:39.200Z,28.67
2022-11-30T15:05:11.782Z,31.83
2022-11-30T15:07:43.497Z,27.45
2022-11-30T15:10:28.083Z,30.48
2022-11-30T15:12:59.748Z,28.92
2022-11-30T15:15:41.573Z,28.20
2022-11-30T15:18:17.126Z,25.90
2022-11-30T15:21:06.023Z,27.38
2022-11-30T15:23:37.163Z,30.13
2022-11-30T15:26:48.501Z,29.17
2022-11-30T15:29:31.326Z,29.52
2022-11-30T15:32:24.875Z,26.60
2022-11-30T15:37:43.478Z,29.70
2022-11-30T15:40:18.884Z,27.08
2022-11-30T15:42:51.366Z,28.60
2022-11-30T15:45:37.547Z,32.38
2022-11-30T15:51:50.917Z,32.05
2022-11-30T15:55:04.597Z,28.40
2022-11-30T15:58:01.966Z,28.73
2022-11-30T16:00:30.468Z,26.70
2022-11-30T16:03:34.403Z,24.90
2022-11-30T16:06:07.920Z,24.35
2022-11-30T16:08:47.318Z,22.50
2022-11-30T16:11:20.048Z,26.20
2022-11-30T16:13:47.749Z,22.98
2022-11-30T16:16:22.549Z,21.08
2022-11-30T16:18:56.830Z,19.67
2022-11-30T16:24:19.090Z,16.88
2022-11-30T16:26:53.589Z,16.42
2022-11-30T16:29:29.353Z,19.92
2022-11-30T16:31:57.873Z,16.98
2022-11-30T16:34:30.621Z,18.77
2022-11-30T16:37:01.771Z,19.83
2022-11-30T16:39:29.714Z,19.38
2022-11-30T16:42:00.475Z,19.27
2022-11-30T16:44:37.601Z,21.10
2022-11-30T16:47:11.313Z,19.83
2022-11-30T16:49:42.178Z,18.05
2022-11-30T16:52:15.538Z,19.80
2022-11-30T16:54:43.051Z,20.75
2022-11-30T16:57:10.067Z,18.38
2022-11-30T16:59:42.413Z,18.00
2022-11-30T17:02:23.710Z,18.73
2022-11-30T17:04:52.203Z,17.73
2022-11-30T17:07:30.768Z,19.55
2022-11-30T17:10:07.031Z,18.30
2022-11-30T17:12:36.345Z,16.05
2022-11-30T17:15:06.213Z,19.83
2022-11-30T17:17:33.991Z,19.17
2022-11-30T17:20:04.432Z,20.00
2022-11-30T17:22:45.786Z,20.60
2022-11-30T17:25:20.547Z,18.30
2022-11-30T17:27:50.722Z,19.25
2022-11-30T17:30:32.299Z,18.85
2022-11-30T17:35:48.421Z,21.98
2022-11-30T17:38:16.227Z,18.73
2022-11-30T17:40:50.854Z,19.90
2022-11-30T17:43:20.134Z,17.77
2022-11-30T17:48:20.014Z,19.20
2022-11-30T17:50:54.145Z,17.58
2022-11-30T17:53:32.844Z,22.40
2022-11-30T17:56:15.721Z,21.98
2022-11-30T17:58:48.436Z,20.90
2022-11-30T18:01:26.551Z,18.23
2022-11-30T18:03:57.239Z,19.75
2022-11-30T18:06:29.269Z,22.77
2022-11-30T18:09:02.838Z,21.77
2022-11-30T18:11:36.440Z,18.67
2022-11-30T18:14:19.057Z,18.88
2022-11-30T18:16:46.173Z,18.13
2022-11-30T18:19:15.640Z,21.15
2022-11-30T18:21:46.491Z,23.60
2022-11-30T18:24:19.996Z,20.17
2022-11-30T18:27:01.374Z,25.77
2022-11-30T18:29:29.990Z,18.92
2022-11-30T18:31:56.926Z,21.13
2022-11-30T18:34:33.801Z,19.98
2022-11-30T18:37:16.801Z,23.30
2022-11-30T18:39:47.088Z,22.25
2022-11-30T18:42:21.463Z,24.67
2022-11-30T18:44:51.270Z,23.75
2022-11-30T18:47:21.522Z,26.73
2022-11-30T18:50:00.123Z,22.98
2022-11-30T18:52:35.948Z,24.15
2022-11-30T18:55:07.198Z,23.40
2022-11-30T19:00:23.612Z,22.17
2022-11-30T19:02:53.417Z,22.33
2022-11-30T19:05:39.834Z,23.55
2022-11-30T19:08:12.462Z,23.58
2022-11-30T19:10:50.628Z,21.55
2022-11-30T19:13:24.515Z,22.30
2022-11-30T19:16:17.961Z,21.23
2022-11-30T19:18:48.314Z,22.98
2022-11-30T19:21:24.925Z,25.00
2022-11-30T19:23:52.143Z,23.75
2022-11-30T19:26:27.927Z,27.02
2022-11-30T19:28:56.602Z,26.45
2022-11-30T19:31:27.245Z,26.02
2022-11-30T19:33:55.720Z,27.75
2022-11-30T19:36:28.336Z,24.60
2022-11-30T19:39:00.732Z,24.10
2022-11-30T19:41:28.531Z,27.80
2022-11-30T19:44:04.114Z,25.23
2022-11-30T19:46:36.680Z,24.35
2022-11-30T19:51:50.732Z,28.75
2022-11-30T19:54:21.479Z,30.02
2022-11-30T19:56:49.989Z,26.10
2022-11-30T19:59:25.773Z,26.67
2022-11-30T20:02:01.245Z,28.10
2022-11-30T20:04:28.712Z,29.50
2022-11-30T20:06:57.962Z,30.08
2022-11-30T20:09:26.634Z,28.50
2022-11-30T20:11:59.206Z,29.50
2022-11-30T20:14:28.697Z,31.20
2022-11-30T20:16:56.397Z,26.02
2022-11-30T20:19:38.446Z,28.58
2022-11-30T20:22:06.524Z,30.35
2022-11-30T20:24:41.917Z,33.53
2022-11-30T20:27:15.131Z,31.48
2022-11-30T20:30:18.222Z,31.30
2022-11-30T20:32:58.479Z,29.23
2022-11-30T20:38:07.291Z,30.33
2022-11-30T20:40:36.755Z,30.08
2022-11-30T20:43:03.587Z,31.17
2022-11-30T20:45:32.826Z,27.70
2022-11-30T20:48:03.678Z,27.88
2022-11-30T20:50:31.190Z,30.55
2022-11-30T20:53:01.145Z,27.15
2022-11-30T20:55:30.174Z,26.55
2022-11-30T20:58:00.148Z,26.35
2022-11-30T21:00:30.580Z,27.52
2022-11-30T21:03:00.699Z,28.50
2022-11-30T21:05:33.734Z,27.38
2022-11-30T21:08:09.649Z,25.02
2022-11-30T21:10:40.880Z,33.45
2022-11-30T21:13:08.755Z,32.40
2022-11-30T21:15:48.540Z,34.42
2022-11-30T21:18:21.261Z,34.50
2022-11-30T21:20:58.306Z,31.50
2022-11-30T21:23:37.885Z,35.08
2022-11-30T21:29:13.869Z,33.55
2022-11-30T21:34:33.874Z,35.05
2022-11-30T21:37:00.763Z,30.63
2022-11-30T21:39:29.598Z,33.47
2022-11-30T21:42:16.299Z,29.92
2022-11-30T21:44:45.715Z,32.95
2022-11-30T21:47:28.695Z,31.42
2022-11-30T21:50:08.372Z,30.35
2022-11-30T21:52:49.909Z,31.40
2022-11-30T21:55:26.218Z,30.38
2022-11-30T21:57:57.549Z,31.38
2022-11-30T22:00:31.445Z,32.30
2022-11-30T22:03:00.882Z,33.60
2022-11-30T22:05:28.447Z,31.60
2022-11-30T22:08:01.013Z,37.40
2022-11-30T22:10:36.091Z,35.05
2022-11-30T22:13:08.383Z,34.88
2022-11-30T22:15:36.674Z,34.90
2022-11-30T22:18:14.374Z,37.05
2022-11-30T22:20:44.385Z,32.33
2022-11-30T22:23:24.056Z,35.42
2022-11-30T22:26:21.404Z,37.03
2022-11-30T22:29:02.822Z,34.95
2022-11-30T22:31:34.330Z,31.48
2022-11-30T22:34:13.755Z,37.58
2022-11-30T22:36:47.772Z,33.38
2022-11-30T22:39:27.403Z,37.50
2022-11-30T22:42:08.951Z,36.75
2022-11-30T22:44:45.110Z,33.80
2022-11-30T22:47:14.715Z,33.13
2022-11-30T22:49:42.867Z,35.67
2022-11-30T22:52:42.287Z,34.20
2022-11-30T22:55:15.909Z,29.65
2022-11-30T22:57:43.780Z,32.42
2022-11-30T23:00:26.275Z,31.35
2022-11-30T23:02:54.551Z,30.05
2022-11-30T23:05:22.386Z,33.45
2022-11-30T23:07:51.072Z,33.45
2022-11-30T23:13:03.103Z,34.72
2022-11-30T23:15:35.939Z,34.15
2022-11-30T23:18:07.710Z,29.17
2022-11-30T23:20:38.294Z,34.00
2022-11-30T23:23:06.479Z,33.55
2022-11-30T23:25:36.340Z,35.35
2022-11-30T23:28:08.179Z,33.53
2022-11-30T23:30:36.630Z,37.78
2022-11-30T23:33:07.696Z,37.17
2022-11-30T23:35:38.312Z,46.95
2022-11-30T23:38:14.467Z,39.90
2022-11-30T23:40:49.826Z,39.00
2022-11-30T23:43:23.115Z,43.58
2022-11-30T23:45:51.321Z,50.17
2022-11-30T23:48:18.632Z,41.58
2022-11-30T23:50:49.188Z,46.45
2022-11-30T23:53:19.590Z,46.67
2022-11-30T23:56:02.819Z,47.63
2022-11-30T23:58:33.235Z,44.35
